Time;durP1;ratioP1;P1;durP2;ratioP2;P2;SDS_P1;SDS_P2;PMS_P1;PMS_P2;Temp;Humidity;BMP_temperature;BMP_pressure;BME280_temperature;BME280_humidity;BME280_pressure;Samples;Min_cycle;Max_cycle;Signal;HPM_P1;HPM_P2
2022/09/21 00:00:43;;;;;;;0.50;0.50;;;8.30;99.90;;;;;;5008728;27;20047;-81
2022/09/21 00:03:09;;;;;;;0.50;0.50;;;8.20;99.90;;;;;;4988799;27;20053;-81
2022/09/21 00:05:37;;;;;;;0.50;0.50;;;8.20;99.90;;;;;;4990067;27;20051;-81
2022/09/21 00:08:05;;;;;;;0.50;0.50;;;8.20;99.90;;;;;;5002112;27;20115;-81
2022/09/21 00:10:31;;;;;;;0.50;0.50;;;8.20;99.90;;;;;;5008965;27;20054;-81
2022/09/21 00:12:58;;;;;;;0.50;0.50;;;8.10;99.90;;;;;;5022937;27;20506;-81
2022/09/21 00:15:25;;;;;;;0.50;0.50;;;8.10;99.90;;;;;;5010977;27;20960;-81
2022/09/21 00:17:55;;;;;;;0.50;0.50;;;8.10;99.90;;;;;;4997049;27;20236;-81
2022/09/21 00:20:23;;;;;;;0.50;0.50;;;8.00;99.90;;;;;;5011999;27;20949;-81
2022/09/21 00:22:50;;;;;;;0.50;0.50;;;7.90;99.90;;;;;;5016241;27;20039;-81
2022/09/21 00:25:17;;;;;;;0.50;0.50;;;7.80;99.90;;;;;;5001042;27;20719;-81
2022/09/21 00:27:43;;;;;;;0.50;0.50;;;7.80;99.90;;;;;;5010477;27;20051;-81
2022/09/21 00:30:10;;;;;;;0.50;0.50;;;7.70;99.90;;;;;;5008300;27;20050;-81
2022/09/21 00:32:38;;;;;;;0.50;0.50;;;7.70;99.90;;;;;;5026105;27;20423;-81
2022/09/21 00:35:08;;;;;;;0.50;0.50;;;7.70;99.90;;;;;;5029709;27;20617;-81
2022/09/21 00:37:35;;;;;;;0.50;0.50;;;7.80;99.90;;;;;;5025840;27;20694;-82
2022/09/21 00:40:02;;;;;;;0.50;0.50;;;7.70;99.90;;;;;;5004491;27;20143;-81
2022/09/21 00:42:33;;;;;;;0.50;0.50;;;7.60;99.90;;;;;;5006173;27;20990;-80
2022/09/21 00:45:00;;;;;;;0.50;0.50;;;7.60;99.90;;;;;;4998276;27;20055;-81
2022/09/21 00:47:39;;;;;;;0.50;0.50;;;7.60;99.90;;;;;;5021808;27;20043;-81
2022/09/21 00:50:16;;;;;;;0.60;0.60;;;7.40;99.90;;;;;;5007346;27;20073;-81
2022/09/21 00:52:46;;;;;;;0.50;0.50;;;7.60;99.90;;;;;;5003183;27;20052;-81
2022/09/21 00:55:19;;;;;;;0.60;0.60;;;7.60;99.90;;;;;;5015272;27;20051;-81
2022/09/21 00:57:50;;;;;;;0.60;0.60;;;7.60;99.90;;;;;;5019544;27;20047;-81
2022/09/21 01:00:16;;;;;;;0.50;0.50;;;7.70;99.90;;;;;;5019557;27;20558;-80
2022/09/21 01:02:42;;;;;;;0.60;0.60;;;7.60;99.90;;;;;;5001755;27;20654;-80
2022/09/21 01:05:09;;;;;;;0.60;0.60;;;7.60;99.90;;;;;;4987145;27;20048;-80
2022/09/21 01:07:44;;;;;;;0.50;0.50;;;7.50;99.90;;;;;;4996241;27;20055;-81
2022/09/21 01:10:13;;;;;;;0.60;0.60;;;7.60;99.90;;;;;;5010966;27;21103;-81
2022/09/21 01:12:58;;;;;;;0.60;0.60;;;7.60;99.90;;;;;;5006346;27;20060;-81
2022/09/21 01:15:52;;;;;;;0.60;0.60;;;7.60;99.90;;;;;;5009989;27;20050;-80
2022/09/21 01:18:56;;;;;;;0.60;0.60;;;7.60;99.90;;;;;;4998287;27;20066;-81
2022/09/21 01:21:30;;;;;;;0.60;0.60;;;7.60;99.90;;;;;;4932408;28;20081;-81
2022/09/21 01:24:38;;;;;;;0.60;0.60;;;7.50;99.90;;;;;;4919038;28;20058;-80
2022/09/21 01:27:35;;;;;;;0.60;0.60;;;7.40;99.90;;;;;;5004447;27;20055;-80
2022/09/21 01:30:17;;;;;;;0.60;0.60;;;7.30;99.90;;;;;;5009128;27;20770;-79
2022/09/21 01:32:47;;;;;;;0.60;0.60;;;7.30;99.90;;;;;;5009210;27;20055;-80
2022/09/21 01:35:40;;;;;;;0.60;0.60;;;7.30;99.90;;;;;;5007291;27;20051;-81
2022/09/21 01:38:19;;;;;;;0.60;0.60;;;7.30;99.90;;;;;;5021315;27;20400;-82
2022/09/21 01:40:51;;;;;;;0.60;0.60;;;7.30;99.90;;;;;;5004242;27;20099;-82
2022/09/21 01:43:35;;;;;;;0.68;0.68;;;7.30;99.90;;;;;;5023217;27;20620;-81
2022/09/21 01:46:03;;;;;;;0.60;0.60;;;7.30;99.90;;;;;;5017699;27;20410;-81
2022/09/21 01:48:37;;;;;;;0.60;0.60;;;7.20;99.90;;;;;;5007405;27;20055;-81
2022/09/21 01:51:08;;;;;;;0.60;0.60;;;7.10;99.90;;;;;;5005772;27;20059;-81
2022/09/21 01:53:40;;;;;;;0.60;0.60;;;7.10;99.90;;;;;;5006562;27;20891;-81
2022/09/21 01:56:10;;;;;;;0.60;0.60;;;7.10;99.90;;;;;;5002906;27;20061;-81
2022/09/21 01:59:07;;;;;;;0.60;0.60;;;7.10;99.90;;;;;;5003359;27;20055;-81
2022/09/21 02:01:38;;;;;;;0.60;0.60;;;7.00;99.90;;;;;;5003046;28;20051;-81
2022/09/21 02:04:09;;;;;;;0.60;0.60;;;7.10;99.90;;;;;;4993136;27;20959;-81
2022/09/21 02:06:38;;;;;;;0.60;0.60;;;7.10;99.90;;;;;;5002945;27;20399;-81
2022/09/21 02:09:04;;;;;;;0.60;0.60;;;7.00;99.90;;;;;;5003066;28;20054;-81
2022/09/21 02:11:31;;;;;;;0.60;0.60;;;7.10;99.90;;;;;;4999688;27;20054;-81
2022/09/21 02:13:57;;;;;;;0.60;0.60;;;7.00;99.90;;;;;;4999288;27;20857;-82
2022/09/21 02:16:23;;;;;;;0.60;0.60;;;7.00;99.90;;;;;;4998773;28;20044;-81
2022/09/21 02:19:20;;;;;;;0.60;0.60;;;6.90;99.90;;;;;;5007907;27;20055;-81
2022/09/21 02:21:46;;;;;;;0.60;0.60;;;6.80;99.90;;;;;;4998374;27;20096;-81
2022/09/21 02:24:40;;;;;;;0.60;0.60;;;6.60;99.90;;;;;;5024276;27;20043;-81
2022/09/21 02:27:43;;;;;;;0.60;0.60;;;6.70;99.90;;;;;;5020017;27;20460;-81
2022/09/21 02:30:17;;;;;;;0.60;0.60;;;6.70;99.90;;;;;;5017339;27;20051;-81
2022/09/21 02:32:50;;;;;;;0.60;0.60;;;6.80;99.90;;;;;;5003053;28;20568;-81
2022/09/21 02:35:29;;;;;;;0.60;0.60;;;6.80;99.90;;;;;;5001813;27;20569;-81
2022/09/21 02:38:15;;;;;;;0.60;0.60;;;6.80;99.90;;;;;;5006001;27;20082;-81
2022/09/21 02:40:55;;;;;;;0.60;0.60;;;6.80;99.90;;;;;;5025019;27;20711;-81
2022/09/21 02:43:36;;;;;;;0.60;0.60;;;6.80;99.90;;;;;;5030277;27;20047;-81
2022/09/21 02:46:08;;;;;;;0.60;0.60;;;6.70;99.90;;;;;;5041221;27;20049;-81
2022/09/21 02:48:44;;;;;;;0.60;0.60;;;6.60;99.90;;;;;;5031768;27;20043;-81
2022/09/21 02:51:15;;;;;;;0.60;0.60;;;6.70;99.90;;;;;;5021167;27;20536;-81
2022/09/21 02:53:43;;;;;;;0.60;0.60;;;6.60;99.90;;;;;;5019890;28;20478;-81
2022/09/21 02:56:10;;;;;;;0.60;0.60;;;6.60;99.90;;;;;;4995805;28;20055;-81
2022/09/21 02:58:48;;;;;;;0.60;0.60;;;6.60;99.90;;;;;;5038314;27;20479;-81
2022/09/21 03:01:16;;;;;;;0.60;0.60;;;6.60;99.90;;;;;;5012742;28;20446;-81
2022/09/21 03:03:42;;;;;;;0.60;0.60;;;6.60;99.90;;;;;;5032874;27;20043;-81
2022/09/21 03:06:08;;;;;;;0.60;0.60;;;6.60;99.90;;;;;;5006124;28;20516;-82
2022/09/21 03:08:34;;;;;;;0.60;0.60;;;6.60;99.90;;;;;;5028581;27;20143;-82
2022/09/21 03:11:00;;;;;;;0.60;0.60;;;6.60;99.90;;;;;;5027808;27;20055;-81
2022/09/21 03:13:26;;;;;;;0.60;0.60;;;6.60;99.90;;;;;;5003634;27;20049;-81
2022/09/21 03:16:02;;;;;;;0.60;0.60;;;6.60;99.90;;;;;;5005356;28;20035;-82
2022/09/21 03:18:28;;;;;;;0.60;0.60;;;6.60;99.90;;;;;;5024259;27;20118;-82
2022/09/21 03:20:54;;;;;;;0.63;0.63;;;6.60;99.90;;;;;;5012938;27;20519;-81
2022/09/21 03:23:20;;;;;;;0.68;0.68;;;6.50;99.90;;;;;;5003619;27;20142;-81
2022/09/21 03:25:46;;;;;;;0.60;0.60;;;6.50;99.90;;;;;;4998011;28;20047;-80
2022/09/21 03:28:13;;;;;;;0.60;0.60;;;6.50;99.90;;;;;;5006048;28;20795;-82
2022/09/21 03:30:40;;;;;;;0.60;0.60;;;6.50;99.90;;;;;;5019329;27;20071;-82
2022/09/21 03:33:07;;;;;;;0.60;0.60;;;6.30;99.90;;;;;;5002245;28;20102;-82
2022/09/21 03:35:34;;;;;;;0.60;0.60;;;6.30;99.90;;;;;;5000396;28;20043;-81
2022/09/21 03:38:00;;;;;;;0.60;0.60;;;6.20;99.90;;;;;;5018817;27;20948;-81
2022/09/21 03:40:27;;;;;;;0.60;0.60;;;6.30;99.90;;;;;;5008831;27;20042;-80
2022/09/21 03:42:53;;;;;;;0.60;0.60;;;6.30;99.90;;;;;;5014216;27;20446;-82
2022/09/21 03:45:26;;;;;;;0.60;0.60;;;6.30;99.90;;;;;;5006071;28;20054;-82
2022/09/21 03:47:56;;;;;;;0.60;0.60;;;6.20;99.90;;;;;;5014147;27;20122;-83
2022/09/21 03:50:24;;;;;;;0.60;0.60;;;6.20;99.90;;;;;;4997533;27;20144;-82
2022/09/21 03:52:50;;;;;;;0.60;0.60;;;6.20;99.90;;;;;;5015632;27;20066;-81
2022/09/21 03:55:16;;;;;;;0.60;0.60;;;6.10;99.90;;;;;;5017490;27;20472;-82
2022/09/21 03:57:42;;;;;;;0.70;0.70;;;6.10;99.90;;;;;;4994154;28;20101;-82
2022/09/21 04:00:09;;;;;;;0.60;0.60;;;6.20;99.90;;;;;;5003549;27;20047;-81
2022/09/21 04:02:37;;;;;;;0.60;0.60;;;6.10;99.90;;;;;;5004838;27;20162;-81
2022/09/21 04:05:03;;;;;;;0.60;0.60;;;6.00;99.90;;;;;;5005239;27;20080;-81
2022/09/21 04:07:33;;;;;;;0.52;0.52;;;6.00;99.90;;;;;;4995328;27;20830;-82
2022/09/21 04:10:00;;;;;;;0.60;0.60;;;6.00;99.90;;;;;;5006574;27;20050;-81
2022/09/21 04:12:26;;;;;;;0.60;0.60;;;6.10;99.90;;;;;;5006437;27;20057;-81
2022/09/21 04:14:52;;;;;;;0.60;0.60;;;6.10;99.90;;;;;;5008625;27;20562;-82
2022/09/21 04:17:18;;;;;;;0.60;0.60;;;6.00;99.90;;;;;;5011899;27;20926;-82
2022/09/21 04:19:44;;;;;;;0.70;0.70;;;6.00;99.90;;;;;;5001119;27;20059;-81
2022/09/21 04:22:13;;;;;;;0.60;0.60;;;5.90;99.90;;;;;;4997182;27;20142;-81
2022/09/21 04:24:39;;;;;;;0.70;0.70;;;5.90;99.90;;;;;;5001619;27;20264;-82
2022/09/21 04:27:09;;;;;;;0.60;0.60;;;5.80;99.90;;;;;;5003144;27;20131;-82
2022/09/21 04:29:35;;;;;;;0.60;0.60;;;5.90;99.90;;;;;;5002591;27;20043;-81
2022/09/21 04:32:02;;;;;;;0.60;0.60;;;6.00;99.90;;;;;;5001579;27;20369;-79
2022/09/21 04:34:29;;;;;;;0.70;0.70;;;6.00;99.90;;;;;;5005938;27;20790;-80
2022/09/21 04:36:57;;;;;;;0.60;0.60;;;5.90;99.90;;;;;;5001801;27;20058;-81
2022/09/21 04:39:25;;;;;;;0.60;0.60;;;5.90;99.90;;;;;;4996055;27;21418;-80
2022/09/21 04:41:51;;;;;;;0.60;0.60;;;5.80;99.90;;;;;;5027419;27;20059;-81
2022/09/21 04:44:19;;;;;;;0.60;0.60;;;5.80;99.90;;;;;;5024885;27;20093;-80
2022/09/21 04:46:45;;;;;;;0.60;0.60;;;5.70;99.90;;;;;;5013493;27;20058;-80
2022/09/21 04:49:11;;;;;;;0.60;0.60;;;5.80;99.90;;;;;;5026726;27;20557;-81
2022/09/21 04:51:37;;;;;;;0.60;0.60;;;5.70;99.90;;;;;;4999719;27;20039;-81
2022/09/21 04:54:03;;;;;;;0.60;0.60;;;5.60;99.90;;;;;;5007295;27;20555;-81
2022/09/21 04:56:29;;;;;;;0.60;0.60;;;5.50;99.90;;;;;;5017869;27;20047;-81
2022/09/21 04:58:55;;;;;;;0.60;0.60;;;5.70;99.90;;;;;;5005965;27;20046;-81
2022/09/21 05:01:21;;;;;;;0.60;0.60;;;5.60;99.90;;;;;;5010505;27;20458;-81
2022/09/21 05:03:47;;;;;;;0.60;0.60;;;5.70;99.90;;;;;;4990458;27;20047;-80
2022/09/21 05:06:13;;;;;;;0.60;0.60;;;5.70;99.90;;;;;;5020038;27;21440;-81
2022/09/21 05:11:25;;;;;;;0.60;0.60;;;5.80;99.90;;;;;;5000345;27;21054;-81
2022/09/21 05:13:51;;;;;;;0.60;0.60;;;5.50;99.90;;;;;;5002260;27;20142;-81
2022/09/21 05:16:18;;;;;;;0.60;0.60;;;5.50;99.90;;;;;;5024762;27;20048;-81
2022/09/21 05:18:45;;;;;;;0.60;0.60;;;5.40;99.90;;;;;;5006103;27;20376;-80
2022/09/21 05:21:12;;;;;;;0.60;0.60;;;5.50;99.90;;;;;;5011506;27;20512;-81
2022/09/21 05:23:38;;;;;;;0.60;0.60;;;5.40;99.90;;;;;;5012514;27;20047;-81
2022/09/21 05:26:05;;;;;;;0.60;0.60;;;5.30;99.90;;;;;;5006780;27;20066;-80
2022/09/21 05:28:31;;;;;;;0.60;0.60;;;5.30;99.90;;;;;;5033522;27;20095;-81
2022/09/21 05:31:13;;;;;;;0.60;0.60;;;5.20;99.90;;;;;;5011200;27;20051;-81
2022/09/21 05:33:47;;;;;;;0.60;0.60;;;5.30;99.90;;;;;;5026553;27;20713;-80
2022/09/21 05:36:31;;;;;;;0.60;0.60;;;5.30;99.90;;;;;;5019307;27;20043;-80
2022/09/21 05:38:58;;;;;;;0.60;0.60;;;5.30;99.90;;;;;;5019204;27;20039;-80
2022/09/21 05:41:24;;;;;;;0.60;0.60;;;5.40;99.90;;;;;;5016566;27;20054;-80
2022/09/21 05:43:50;;;;;;;0.60;0.60;;;5.50;99.90;;;;;;5015826;27;20043;-80
2022/09/21 05:46:26;;;;;;;0.60;0.60;;;5.60;99.90;;;;;;5013728;27;20043;-81
2022/09/21 05:49:29;;;;;;;0.60;0.60;;;5.60;99.90;;;;;;5019083;27;20776;-80
2022/09/21 05:52:07;;;;;;;0.60;0.60;;;5.70;99.90;;;;;;5005473;27;20134;-80
2022/09/21 05:54:53;;;;;;;0.60;0.60;;;5.80;99.90;;;;;;5028041;27;20058;-81
2022/09/21 05:57:31;;;;;;;0.70;0.70;;;5.90;99.90;;;;;;5028112;27;20162;-81
2022/09/21 06:00:18;;;;;;;0.60;0.60;;;5.90;99.90;;;;;;5028355;27;20050;-80
2022/09/21 06:03:12;;;;;;;0.60;0.60;;;6.00;99.90;;;;;;5006799;27;20447;-81
2022/09/21 06:05:39;;;;;;;0.60;0.60;;;6.00;99.90;;;;;;4995961;28;20143;-81
2022/09/21 06:08:05;;;;;;;0.55;0.55;;;6.10;99.90;;;;;;4997913;27;20293;-80
2022/09/21 06:10:33;;;;;;;0.60;0.60;;;6.10;99.90;;;;;;5002655;28;20537;-80
2022/09/21 06:12:59;;;;;;;0.60;0.60;;;6.20;99.90;;;;;;5001000;27;20054;-79
2022/09/21 06:15:25;;;;;;;0.60;0.60;;;6.40;99.90;;;;;;4999875;27;20528;-82
2022/09/21 06:17:51;;;;;;;0.60;0.60;;;6.60;99.90;;;;;;5020817;27;20126;-80
2022/09/21 06:20:17;;;;;;;0.60;0.60;;;6.70;99.90;;;;;;5016756;27;20444;-80
2022/09/21 06:22:43;;;;;;;0.60;0.60;;;6.70;99.90;;;;;;5001568;27;20578;-79
2022/09/21 06:25:09;;;;;;;0.60;0.60;;;6.90;99.90;;;;;;5004742;28;20058;-81
2022/09/21 06:27:35;;;;;;;0.60;0.60;;;7.00;99.90;;;;;;4981987;27;20039;-81
2022/09/21 06:30:02;;;;;;;0.60;0.60;;;7.20;99.90;;;;;;5013517;28;20136;-81
2022/09/21 06:32:28;;;;;;;0.60;0.60;;;7.30;99.90;;;;;;5006791;27;20747;-80
2022/09/21 06:34:53;;;;;;;0.60;0.60;;;7.30;99.90;;;;;;5021328;27;20120;-79
2022/09/21 06:37:19;;;;;;;0.60;0.60;;;7.40;99.90;;;;;;4991872;28;20499;-80
2022/09/21 06:39:45;;;;;;;0.60;0.60;;;7.60;99.90;;;;;;5005894;28;20082;-80
2022/09/21 06:42:11;;;;;;;0.60;0.60;;;7.90;99.90;;;;;;5007943;28;20128;-81
2022/09/21 06:44:37;;;;;;;0.60;0.60;;;7.80;99.90;;;;;;5005588;28;20147;-81
2022/09/21 06:47:03;;;;;;;0.60;0.60;;;8.00;99.90;;;;;;5007408;27;20040;-81
2022/09/21 06:49:29;;;;;;;0.60;0.60;;;8.20;99.90;;;;;;5027343;27;20510;-80
2022/09/21 06:51:55;;;;;;;0.60;0.60;;;8.40;99.90;;;;;;5020449;27;20049;-81
2022/09/21 06:54:21;;;;;;;0.50;0.50;;;8.60;99.90;;;;;;5005914;28;20451;-80
2022/09/21 06:56:47;;;;;;;0.50;0.50;;;8.70;99.90;;;;;;5025760;27;20058;-78
2022/09/21 06:59:13;;;;;;;0.60;0.60;;;8.80;99.90;;;;;;5007071;28;20056;-79
2022/09/21 07:01:39;;;;;;;0.60;0.60;;;9.00;99.90;;;;;;5001099;28;20243;-81
2022/09/21 07:04:08;;;;;;;0.60;0.60;;;9.10;99.90;;;;;;5023463;28;20043;-80
2022/09/21 07:06:34;;;;;;;0.50;0.50;;;9.30;99.90;;;;;;5020519;28;20051;-81
2022/09/21 07:09:01;;;;;;;0.60;0.60;;;9.50;99.90;;;;;;5000239;28;20453;-81
2022/09/21 07:11:27;;;;;;;0.50;0.50;;;9.70;99.90;;;;;;5000992;28;20609;-80
2022/09/21 07:13:54;;;;;;;0.50;0.50;;;9.80;99.90;;;;;;5023113;28;20531;-80
2022/09/21 07:16:20;;;;;;;0.50;0.50;;;10.00;99.90;;;;;;5013544;28;20347;-81
2022/09/21 07:18:47;;;;;;;0.50;0.50;;;10.20;99.90;;;;;;5019887;28;20462;-79
2022/09/21 07:21:13;;;;;;;0.50;0.50;;;10.40;99.90;;;;;;5016737;28;20058;-80
2022/09/21 07:23:41;;;;;;;0.50;0.50;;;10.50;99.90;;;;;;5017741;28;20039;-80
2022/09/21 07:26:10;;;;;;;0.50;0.50;;;10.70;99.90;;;;;;4997114;28;20047;-81
2022/09/21 07:28:36;;;;;;;0.50;0.50;;;10.90;99.90;;;;;;5000565;28;20350;-81
2022/09/21 07:31:22;;;;;;;0.50;0.50;;;11.00;99.90;;;;;;5004380;27;20081;-80
2022/09/21 07:33:48;;;;;;;0.50;0.50;;;11.20;99.90;;;;;;5004023;28;20086;-81
2022/09/21 07:36:15;;;;;;;0.50;0.50;;;11.40;99.90;;;;;;5017416;27;20047;-80
2022/09/21 07:38:43;;;;;;;0.50;0.50;;;11.50;99.90;;;;;;5015769;28;20894;-80
2022/09/21 07:41:11;;;;;;;0.50;0.50;;;11.70;99.90;;;;;;4999738;27;20053;-80
2022/09/21 07:43:39;;;;;;;0.50;0.50;;;11.90;99.90;;;;;;5008869;27;20415;-80
2022/09/21 07:46:08;;;;;;;0.50;0.50;;;12.10;99.90;;;;;;5008089;27;20055;-82
2022/09/21 07:48:34;;;;;;;0.50;0.50;;;12.20;99.90;;;;;;4997202;27;20091;-80
2022/09/21 07:51:05;;;;;;;0.50;0.50;;;12.40;99.90;;;;;;4986091;28;20632;-80
2022/09/21 07:53:34;;;;;;;0.50;0.50;;;12.60;99.90;;;;;;5033974;27;20042;-81
2022/09/21 07:56:02;;;;;;;0.50;0.50;;;12.70;99.90;;;;;;5024939;27;20753;-80
2022/09/21 08:01:13;;;;;;;0.50;0.50;;;13.00;99.90;;;;;;5019663;27;20156;-81
2022/09/21 08:03:39;;;;;;;0.50;0.50;;;13.20;99.90;;;;;;5024250;27;20072;-80
2022/09/21 08:06:05;;;;;;;0.50;0.50;;;13.40;99.90;;;;;;5003283;27;20051;-79
2022/09/21 08:08:32;;;;;;;0.50;0.50;;;13.60;99.90;;;;;;5007327;27;20047;-80
2022/09/21 08:11:10;;;;;;;0.40;0.40;;;13.70;99.90;;;;;;5024748;27;20075;-81
2022/09/21 08:13:36;;;;;;;0.50;0.50;;;13.60;99.90;;;;;;5013824;27;20589;-81
2022/09/21 08:16:03;;;;;;;0.50;0.50;;;13.90;99.90;;;;;;5024654;27;20752;-83
2022/09/21 08:18:29;;;;;;;0.50;0.50;;;14.10;99.90;;;;;;5018820;27;20047;-80
2022/09/21 08:20:59;;;;;;;0.50;0.50;;;14.10;99.90;;;;;;4975633;28;20382;-81
2022/09/21 08:23:27;;;;;;;0.40;0.40;;;14.30;99.90;;;;;;5006476;28;20674;-83
2022/09/21 08:26:01;;;;;;;0.50;0.50;;;14.50;99.90;;;;;;4989382;27;20051;-81
2022/09/21 08:28:30;;;;;;;0.50;0.50;;;14.50;99.90;;;;;;5010479;27;20502;-82
2022/09/21 08:31:00;;;;;;;0.50;0.50;;;14.60;99.90;;;;;;5006649;28;20508;-83
2022/09/21 08:33:26;;;;;;;0.50;0.50;;;14.70;99.90;;;;;;5008366;28;20159;-82
2022/09/21 08:35:53;;;;;;;0.40;0.40;;;14.80;99.90;;;;;;5007691;28;20182;-83
2022/09/21 08:38:19;;;;;;;0.43;0.43;;;15.10;99.90;;;;;;4990937;27;20061;-82
2022/09/21 08:40:45;;;;;;;0.40;0.40;;;15.20;99.90;;;;;;5028307;27;20551;-82
2022/09/21 08:43:17;;;;;;;0.40;0.40;;;15.30;99.90;;;;;;5001986;28;20052;-83
2022/09/21 08:45:45;;;;;;;0.40;0.40;;;15.30;99.90;;;;;;4989415;28;20619;-81
2022/09/21 08:48:28;;;;;;;0.40;0.40;;;15.40;99.90;;;;;;5008358;28;20052;-82
2022/09/21 08:50:58;;;;;;;0.40;0.40;;;15.50;99.90;;;;;;5008167;28;20477;-83
2022/09/21 08:53:44;;;;;;;0.40;0.40;;;15.40;99.90;;;;;;5003485;28;20886;-82
2022/09/21 08:56:12;;;;;;;0.40;0.40;;;15.60;99.90;;;;;;5004464;28;20131;-81
2022/09/21 08:58:42;;;;;;;0.40;0.40;;;15.60;99.90;;;;;;5002282;28;20971;-81
2022/09/21 09:01:21;;;;;;;0.40;0.40;;;15.50;99.90;;;;;;5009550;28;20055;-82
2022/09/21 09:03:53;;;;;;;0.40;0.40;;;15.90;99.90;;;;;;4997519;28;20572;-81
2022/09/21 09:06:19;;;;;;;0.40;0.40;;;16.00;99.90;;;;;;5007251;28;20048;-82
2022/09/21 09:09:16;;;;;;;0.50;0.50;;;16.20;99.90;;;;;;5009713;28;20058;-80
2022/09/21 09:12:20;;;;;;;0.40;0.40;;;16.30;99.90;;;;;;5000895;28;20397;-81
2022/09/21 09:14:58;;;;;;;0.30;0.30;;;16.30;99.90;;;;;;5007724;28;20680;-81
2022/09/21 09:17:48;;;;;;;0.40;0.40;;;16.30;99.90;;;;;;5001481;28;20713;-81
2022/09/21 09:20:22;;;;;;;0.40;0.40;;;16.50;99.90;;;;;;5006783;28;20424;-82
2022/09/21 09:23:01;;;;;;;0.40;0.40;;;16.60;99.90;;;;;;5005942;28;20054;-80
2022/09/21 09:25:34;;;;;;;0.40;0.40;;;16.60;99.90;;;;;;5005770;28;20048;-81
2022/09/21 09:28:13;;;;;;;0.40;0.40;;;16.60;99.90;;;;;;5000013;28;20975;-81
2022/09/21 09:30:39;;;;;;;0.40;0.40;;;16.90;99.90;;;;;;5009834;28;20612;-81
2022/09/21 09:33:26;;;;;;;0.40;0.40;;;17.00;99.90;;;;;;4986353;28;20048;-82
2022/09/21 09:35:59;;;;;;;0.40;0.40;;;17.00;99.90;;;;;;5004528;28;20556;-81
2022/09/21 09:38:48;;;;;;;0.40;0.40;;;17.00;99.90;;;;;;5004911;28;20113;-80
2022/09/21 09:41:23;;;;;;;0.40;0.40;;;17.30;99.90;;;;;;4963992;28;20829;-80
2022/09/21 09:44:13;;;;;;;0.40;0.40;;;17.40;99.90;;;;;;4981234;28;20052;-81
2022/09/21 09:47:20;;;;;;;0.40;0.40;;;17.30;99.90;;;;;;4980600;28;20426;-82
2022/09/21 09:50:06;;;;;;;0.40;0.40;;;17.40;99.90;;;;;;4963877;28;20410;-81
2022/09/21 09:52:33;;;;;;;0.40;0.40;;;17.40;99.90;;;;;;4986586;28;20520;-82
2022/09/21 09:55:00;;;;;;;0.40;0.40;;;17.10;99.90;;;;;;4979415;28;20126;-79
2022/09/21 09:57:30;;;;;;;0.40;0.40;;;17.50;99.90;;;;;;4989428;28;20966;-81
2022/09/21 10:00:03;;;;;;;0.40;0.40;;;17.70;99.90;;;;;;4985196;28;20783;-80
2022/09/21 10:02:30;;;;;;;0.40;0.40;;;17.90;99.90;;;;;;4982394;28;20044;-80
2022/09/21 10:05:05;;;;;;;0.40;0.40;;;18.10;99.90;;;;;;4982016;28;20052;-80
2022/09/21 10:07:38;;;;;;;0.40;0.40;;;17.90;99.90;;;;;;4976545;28;20492;-81
2022/09/21 10:10:30;;;;;;;0.40;0.40;;;18.10;99.90;;;;;;4986418;28;20157;-79
2022/09/21 10:13:05;;;;;;;0.40;0.40;;;17.90;99.90;;;;;;4977169;28;20462;-78
2022/09/21 10:15:31;;;;;;;0.40;0.40;;;18.10;99.90;;;;;;4977172;28;20044;-80
2022/09/21 10:18:10;;;;;;;0.40;0.40;;;18.20;99.90;;;;;;4978281;28;20041;-81
2022/09/21 10:20:36;;;;;;;0.40;0.40;;;18.10;99.90;;;;;;4981818;28;20141;-79
2022/09/21 10:23:04;;;;;;;0.40;0.40;;;18.20;99.90;;;;;;4982006;28;20044;-80
2022/09/21 10:25:30;;;;;;;0.40;0.40;;;18.20;99.90;;;;;;4984141;28;20533;-81
2022/09/21 10:27:56;;;;;;;0.30;0.30;;;18.40;99.90;;;;;;4984038;28;20415;-80
2022/09/21 10:30:28;;;;;;;0.40;0.40;;;18.40;99.90;;;;;;4973934;28;20442;-80
2022/09/21 10:32:56;;;;;;;0.40;0.40;;;18.50;99.90;;;;;;4994785;28;20662;-81
2022/09/21 10:35:22;;;;;;;0.40;0.40;;;18.70;99.90;;;;;;4984172;28;20055;-82
2022/09/21 10:38:15;;;;;;;0.40;0.40;;;18.80;99.90;;;;;;4957284;28;20563;-83
2022/09/21 10:40:43;;;;;;;0.40;0.40;;;18.90;99.90;;;;;;4977181;28;20117;-77
2022/09/21 10:43:32;;;;;;;0.40;0.40;;;18.10;99.90;;;;;;4994323;28;20488;-79
2022/09/21 10:45:58;;;;;;;0.40;0.40;;;18.00;99.90;;;;;;5012230;28;20063;-79
2022/09/21 10:48:26;;;;;;;0.40;0.40;;;17.80;99.90;;;;;;5005387;28;20051;-79
2022/09/21 10:50:54;;;;;;;0.40;0.40;;;17.40;99.90;;;;;;4998018;28;20048;-79
2022/09/21 10:53:27;;;;;;;0.40;0.40;;;18.00;99.90;;;;;;4997727;28;20506;-79
2022/09/21 10:56:12;;;;;;;0.40;0.40;;;17.80;99.90;;;;;;4992098;28;20063;-80
2022/09/21 10:58:38;;;;;;;0.40;0.40;;;17.30;99.90;;;;;;5000274;28;20384;-80
2022/09/21 11:01:22;;;;;;;0.40;0.40;;;17.20;99.90;;;;;;5004108;28;20043;-79
2022/09/21 11:03:59;;;;;;;0.40;0.40;;;17.00;99.90;;;;;;5011967;28;20056;-79
2022/09/21 11:06:36;;;;;;;0.40;0.40;;;16.80;99.90;;;;;;4999710;28;20044;-80
2022/09/21 11:09:08;;;;;;;0.40;0.40;;;16.60;99.90;;;;;;4999000;28;20060;-80
2022/09/21 11:11:55;;;;;;;0.40;0.40;;;16.50;99.90;;;;;;5003506;28;20406;-80
2022/09/21 11:14:41;;;;;;;0.40;0.40;;;16.90;99.90;;;;;;5001171;28;20135;-80
2022/09/21 11:17:11;;;;;;;0.40;0.40;;;17.60;99.90;;;;;;5004280;28;20957;-80
2022/09/21 11:19:40;;;;;;;0.40;0.40;;;18.00;99.90;;;;;;5001373;28;20202;-79
2022/09/21 11:22:39;;;;;;;0.40;0.40;;;18.30;99.90;;;;;;4991683;28;20469;-79
2022/09/21 11:25:24;;;;;;;0.40;0.40;;;18.50;99.90;;;;;;5005287;28;20047;-79
2022/09/21 11:28:39;;;;;;;0.40;0.40;;;19.10;99.90;;;;;;4998913;28;20995;-80
2022/09/21 11:31:08;;;;;;;0.40;0.40;;;19.70;99.90;;;;;;4991453;28;20699;-80
2022/09/21 11:33:43;;;;;;;0.40;0.40;;;19.80;99.90;;;;;;4995697;28;20114;-80
2022/09/21 11:36:37;;;;;;;0.40;0.40;;;20.00;99.90;;;;;;5002781;28;20055;-80
2022/09/21 11:39:10;;;;;;;0.40;0.40;;;19.70;99.90;;;;;;5003834;28;20043;-80
2022/09/21 11:41:55;;;;;;;0.40;0.40;;;19.80;99.90;;;;;;5001205;28;20548;-79
2022/09/21 11:44:48;;;;;;;0.30;0.30;;;19.80;99.90;;;;;;4999917;28;20040;-80
2022/09/21 11:47:15;;;;;;;0.40;0.40;;;19.60;99.90;;;;;;5024705;28;20214;-79
2022/09/21 11:50:04;;;;;;;0.30;0.30;;;19.70;99.90;;;;;;5009041;28;20637;-80
2022/09/21 11:53:05;;;;;;;0.40;0.40;;;19.90;99.90;;;;;;5002716;28;20104;-80
2022/09/21 11:56:00;;;;;;;0.40;0.40;;;19.90;99.90;;;;;;5015134;28;20059;-81
2022/09/21 11:59:05;;;;;;;0.40;0.40;;;20.20;99.90;;;;;;4979876;28;21025;-80
2022/09/21 12:02:04;;;;;;;0.40;0.40;;;20.60;99.90;;;;;;5006933;28;20043;-80
2022/09/21 12:05:05;;;;;;;0.30;0.30;;;20.80;99.90;;;;;;5002799;28;20455;-80
2022/09/21 12:08:00;;;;;;;0.30;0.30;;;20.80;99.90;;;;;;5011847;28;20050;-80
2022/09/21 12:10:34;;;;;;;0.40;0.40;;;20.40;99.90;;;;;;5006966;28;20039;-81
2022/09/21 12:13:29;;;;;;;0.30;0.30;;;20.50;99.90;;;;;;5017226;28;20051;-81
2022/09/21 12:16:15;;;;;;;0.30;0.30;;;20.70;99.90;;;;;;5001258;28;20676;-80
2022/09/21 12:18:59;;;;;;;0.30;0.30;;;21.00;99.90;;;;;;5025715;27;20085;-81
2022/09/21 12:21:28;;;;;;;;;;;21.20;99.90;;;;;;5004622;28;20965;-80
2022/09/21 12:24:02;;;;;;;0.30;0.30;;;20.90;99.90;;;;;;4995779;28;19924;-80
2022/09/21 12:26:41;;;;;;;0.30;0.30;;;21.00;99.90;;;;;;5020528;27;20770;-79
2022/09/21 12:29:24;;;;;;;0.30;0.30;;;20.00;99.90;;;;;;5021793;27;20590;-80
2022/09/21 12:32:03;;;;;;;0.30;0.30;;;19.40;99.90;;;;;;5007356;27;20848;-79
2022/09/21 12:34:39;;;;;;;0.30;0.30;;;19.90;99.90;;;;;;5010680;28;20116;-81
2022/09/21 12:37:32;;;;;;;0.30;0.30;;;19.60;99.90;;;;;;5000160;27;20105;-79
2022/09/21 12:40:23;;;;;;;0.40;0.40;;;19.60;99.90;;;;;;5025488;27;20382;-80
2022/09/21 12:43:01;;;;;;;0.30;0.30;;;19.60;99.90;;;;;;5023866;27;20138;-80
2022/09/21 12:45:33;;;;;;;0.40;0.40;;;19.90;99.90;;;;;;4999247;27;20059;-80
2022/09/21 12:48:09;;;;;;;0.30;0.30;;;20.20;99.90;;;;;;5009143;27;20846;-80
2022/09/21 12:50:53;;;;;;;0.30;0.30;;;20.60;99.90;;;;;;5009102;27;20397;-81
2022/09/21 12:53:32;;;;;;;0.30;0.30;;;20.60;99.90;;;;;;5009248;27;20048;-81
2022/09/21 12:56:23;;;;;;;0.30;0.30;;;20.70;99.90;;;;;;5025230;27;20047;-81
2022/09/21 12:59:07;;;;;;;0.30;0.30;;;20.80;99.90;;;;;;5029519;27;20039;-81
2022/09/21 13:01:40;;;;;;;0.30;0.30;;;20.70;99.90;;;;;;5022718;27;20035;-81
2022/09/21 13:04:33;;;;;;;0.30;0.30;;;20.80;99.90;;;;;;5028464;27;20069;-80
2022/09/21 13:07:19;;;;;;;0.30;0.30;;;21.00;99.90;;;;;;5021927;27;20065;-81
2022/09/21 13:09:50;;;;;;;0.30;0.30;;;20.80;99.90;;;;;;5002660;28;20058;-80
2022/09/21 13:12:37;;;;;;;0.30;0.30;;;21.10;99.90;;;;;;5028564;27;20053;-79
2022/09/21 13:15:41;;;;;;;0.30;0.30;;;20.90;99.90;;;;;;5026046;27;20047;-80
2022/09/21 13:18:37;;;;;;;0.35;0.35;;;20.90;99.90;;;;;;5011432;27;20116;-81
2022/09/21 13:21:25;;;;;;;0.30;0.30;;;21.00;99.90;;;;;;5007921;27;20152;-80
2022/09/21 13:24:00;;;;;;;0.30;0.30;;;21.10;99.90;;;;;;5032051;27;20047;-79
2022/09/21 13:26:39;;;;;;;0.30;0.30;;;20.20;99.90;;;;;;5025891;27;20047;-79
2022/09/21 13:29:20;;;;;;;0.30;0.30;;;19.70;99.90;;;;;;5008565;27;20047;-80
2022/09/21 13:31:59;;;;;;;0.30;0.30;;;19.10;99.90;;;;;;5024438;27;20577;-80